Duparquet, Canada
Current Conditions -  °F | °C
As of 2:00 AM on Sunday 26 Oct 2014 (Local Time) from CYUY Reporting Station
Light Rain Light Rain  
Wind Chill: 31°   Ceiling: 900
Heat Index: 37°   Visibility: 15mi
Dew Point: 37°   Wind: 8mph
Humidity: 100%   Direction: 280°W
Pressure: 29.42"   Gusts: NA
Location:  48.52°N, 79.22°W
Report Text: CYUY 260600Z 28007KT 250V320 15SM -RA FEW004 OVC009 03/03 A2942 RMK SF1SF8 SF TR PCPN VERY LGT SLP971
Loading
Personal Weather Stations






























Interactive Weather Map
Tropical Storm Tracking
New forecast layout! Learn more

10-Day Weather Forecast

Advertisements
Track Severe Weather on mobile